sensor_id;sensor_type;location;lat;lon;timestamp;temperature;humidity
48007;DHT22;33771;48.180;11.400;2023-11-18T00:01:44;4.60;99.90
48007;DHT22;33771;48.180;11.400;2023-11-18T00:04:11;4.60;99.90
48007;DHT22;33771;48.180;11.400;2023-11-18T00:06:41;4.60;99.90
48007;DHT22;33771;48.180;11.400;2023-11-18T00:09:14;4.60;99.90
48007;DHT22;33771;48.180;11.400;2023-11-18T00:11:42;4.60;99.90
48007;DHT22;33771;48.180;11.400;2023-11-18T00:14:10;4.60;99.90
48007;DHT22;33771;48.180;11.400;2023-11-18T00:16:36;4.60;99.90
48007;DHT22;33771;48.180;11.400;2023-11-18T00:19:02;4.60;99.90
48007;DHT22;33771;48.180;11.400;2023-11-18T00:21:30;4.60;99.90
48007;DHT22;33771;48.180;11.400;2023-11-18T00:23:56;4.50;99.90
48007;DHT22;33771;48.180;11.400;2023-11-18T00:26:21;4.50;99.90
48007;DHT22;33771;48.180;11.400;2023-11-18T00:28:47;4.50;99.90
48007;DHT22;33771;48.180;11.400;2023-11-18T00:31:14;4.50;99.90
48007;DHT22;33771;48.180;11.400;2023-11-18T00:33:39;4.40;99.90
48007;DHT22;33771;48.180;11.400;2023-11-18T00:36:06;4.50;99.90
48007;DHT22;33771;48.180;11.400;2023-11-18T00:38:32;4.50;99.90
48007;DHT22;33771;48.180;11.400;2023-11-18T00:40:57;4.40;99.90
48007;DHT22;33771;48.180;11.400;2023-11-18T00:43:23;4.40;99.90
48007;DHT22;33771;48.180;11.400;2023-11-18T00:45:48;4.40;99.90
48007;DHT22;33771;48.180;11.400;2023-11-18T00:48:14;4.50;99.90
48007;DHT22;33771;48.180;11.400;2023-11-18T00:50:40;4.50;99.90
48007;DHT22;33771;48.180;11.400;2023-11-18T00:53:06;4.40;99.90
48007;DHT22;33771;48.180;11.400;2023-11-18T00:55:31;4.40;99.90
48007;DHT22;33771;48.180;11.400;2023-11-18T00:57:57;4.40;99.90
48007;DHT22;33771;48.180;11.400;2023-11-18T01:00:23;4.40;99.90
48007;DHT22;33771;48.180;11.400;2023-11-18T01:02:52;4.40;99.90
48007;DHT22;33771;48.180;11.400;2023-11-18T01:05:19;4.40;99.90
48007;DHT22;33771;48.180;11.400;2023-11-18T01:07:44;4.30;99.90
48007;DHT22;33771;48.180;11.400;2023-11-18T01:10:11;4.40;99.90
48007;DHT22;33771;48.180;11.400;2023-11-18T01:12:36;4.40;99.90
48007;DHT22;33771;48.180;11.400;2023-11-18T01:15:03;4.40;99.90
48007;DHT22;33771;48.180;11.400;2023-11-18T01:17:29;4.40;99.90
48007;DHT22;33771;48.180;11.400;2023-11-18T01:19:56;4.30;99.90
48007;DHT22;33771;48.180;11.400;2023-11-18T01:22:22;4.30;99.90
48007;DHT22;33771;48.180;11.400;2023-11-18T01:24:48;4.30;99.90
48007;DHT22;33771;48.180;11.400;2023-11-18T01:27:13;4.30;99.90
48007;DHT22;33771;48.180;11.400;2023-11-18T01:29:39;4.30;99.90
48007;DHT22;33771;48.180;11.400;2023-11-18T01:32:06;4.30;99.90
48007;DHT22;33771;48.180;11.400;2023-11-18T01:34:35;4.20;99.90
48007;DHT22;33771;48.180;11.400;2023-11-18T01:37:03;4.20;99.90
48007;DHT22;33771;48.180;11.400;2023-11-18T01:39:30;4.20;99.90
48007;DHT22;33771;48.180;11.400;2023-11-18T01:41:56;4.20;99.90
48007;DHT22;33771;48.180;11.400;2023-11-18T01:44:25;4.20;99.90
48007;DHT22;33771;48.180;11.400;2023-11-18T01:46:54;4.20;99.90
48007;DHT22;33771;48.180;11.400;2023-11-18T01:49:20;4.20;99.90
48007;DHT22;33771;48.180;11.400;2023-11-18T01:51:46;4.20;99.90
48007;DHT22;33771;48.180;11.400;2023-11-18T01:54:13;4.20;99.90
48007;DHT22;33771;48.180;11.400;2023-11-18T01:56:46;4.20;99.90
48007;DHT22;33771;48.180;11.400;2023-11-18T01:59:12;4.20;99.90
48007;DHT22;33771;48.180;11.400;2023-11-18T02:01:47;4.20;99.90
48007;DHT22;33771;48.180;11.400;2023-11-18T02:04:14;4.10;99.90
48007;DHT22;33771;48.180;11.400;2023-11-18T02:06:40;4.20;99.90
48007;DHT22;33771;48.180;11.400;2023-11-18T02:09:05;4.20;99.90
48007;DHT22;33771;48.180;11.400;2023-11-18T02:11:41;4.10;99.90
48007;DHT22;33771;48.180;11.400;2023-11-18T02:14:13;4.10;99.90
48007;DHT22;33771;48.180;11.400;2023-11-18T02:16:40;4.10;99.90
48007;DHT22;33771;48.180;11.400;2023-11-18T02:19:21;4.10;99.90
48007;DHT22;33771;48.180;11.400;2023-11-18T02:21:50;4.20;99.90
48007;DHT22;33771;48.180;11.400;2023-11-18T02:24:31;4.20;99.90
48007;DHT22;33771;48.180;11.400;2023-11-18T02:26:59;4.20;99.90
48007;DHT22;33771;48.180;11.400;2023-11-18T02:29:27;4.20;99.90
48007;DHT22;33771;48.180;11.400;2023-11-18T02:31:58;4.20;99.90
48007;DHT22;33771;48.180;11.400;2023-11-18T02:34:30;4.20;99.90
48007;DHT22;33771;48.180;11.400;2023-11-18T02:36:58;4.20;99.90
48007;DHT22;33771;48.180;11.400;2023-11-18T02:39:36;4.20;99.90
48007;DHT22;33771;48.180;11.400;2023-11-18T02:42:04;4.20;99.90
48007;DHT22;33771;48.180;11.400;2023-11-18T02:44:35;4.30;99.90
48007;DHT22;33771;48.180;11.400;2023-11-18T02:47:02;4.30;99.90
48007;DHT22;33771;48.180;11.400;2023-11-18T02:49:29;4.30;99.90
48007;DHT22;33771;48.180;11.400;2023-11-18T02:51:55;4.30;99.90
48007;DHT22;33771;48.180;11.400;2023-11-18T02:54:21;4.20;99.90
48007;DHT22;33771;48.180;11.400;2023-11-18T02:56:47;4.20;99.90
48007;DHT22;33771;48.180;11.400;2023-11-18T02:59:13;4.10;99.90
48007;DHT22;33771;48.180;11.400;2023-11-18T03:01:38;4.00;99.90
48007;DHT22;33771;48.180;11.400;2023-11-18T03:04:04;4.00;99.90
48007;DHT22;33771;48.180;11.400;2023-11-18T03:06:30;3.90;99.90
48007;DHT22;33771;48.180;11.400;2023-11-18T03:08:58;4.00;99.90
48007;DHT22;33771;48.180;11.400;2023-11-18T03:11:23;4.00;99.90
48007;DHT22;33771;48.180;11.400;2023-11-18T03:13:49;3.90;99.90
48007;DHT22;33771;48.180;11.400;2023-11-18T03:16:15;4.00;99.90
48007;DHT22;33771;48.180;11.400;2023-11-18T03:18:42;4.00;99.90
48007;DHT22;33771;48.180;11.400;2023-11-18T03:21:14;4.00;99.90
48007;DHT22;33771;48.180;11.400;2023-11-18T03:23:40;4.00;99.90
48007;DHT22;33771;48.180;11.400;2023-11-18T03:26:09;4.00;99.90
48007;DHT22;33771;48.180;11.400;2023-11-18T03:28:38;3.90;99.90
48007;DHT22;33771;48.180;11.400;2023-11-18T03:31:05;4.00;99.90
48007;DHT22;33771;48.180;11.400;2023-11-18T03:33:32;4.00;99.90
48007;DHT22;33771;48.180;11.400;2023-11-18T03:35:58;4.00;99.90
48007;DHT22;33771;48.180;11.400;2023-11-18T03:38:24;4.00;99.90
48007;DHT22;33771;48.180;11.400;2023-11-18T03:40:49;4.00;99.90
48007;DHT22;33771;48.180;11.400;2023-11-18T03:43:16;4.00;99.90
48007;DHT22;33771;48.180;11.400;2023-11-18T03:45:42;4.00;99.90
48007;DHT22;33771;48.180;11.400;2023-11-18T03:48:07;4.10;99.90
48007;DHT22;33771;48.180;11.400;2023-11-18T03:50:33;4.10;99.90
48007;DHT22;33771;48.180;11.400;2023-11-18T03:52:59;4.10;99.90
48007;DHT22;33771;48.180;11.400;2023-11-18T03:55:25;4.10;99.90
48007;DHT22;33771;48.180;11.400;2023-11-18T03:57:53;4.10;99.90
48007;DHT22;33771;48.180;11.400;2023-11-18T04:00:19;4.10;99.90
48007;DHT22;33771;48.180;11.400;2023-11-18T04:02:48;4.20;99.90
48007;DHT22;33771;48.180;11.400;2023-11-18T04:05:14;4.20;99.90
48007;DHT22;33771;48.180;11.400;2023-11-18T04:07:39;4.20;99.90
48007;DHT22;33771;48.180;11.400;2023-11-18T04:10:08;4.20;99.90
48007;DHT22;33771;48.180;11.400;2023-11-18T04:12:38;4.10;99.90
48007;DHT22;33771;48.180;11.400;2023-11-18T04:15:05;4.20;99.90
48007;DHT22;33771;48.180;11.400;2023-11-18T04:17:31;4.20;99.90
48007;DHT22;33771;48.180;11.400;2023-11-18T04:19:57;4.20;99.90
48007;DHT22;33771;48.180;11.400;2023-11-18T04:22:23;4.20;99.90
48007;DHT22;33771;48.180;11.400;2023-11-18T04:24:49;4.20;99.90
48007;DHT22;33771;48.180;11.400;2023-11-18T04:27:15;4.20;99.90
48007;DHT22;33771;48.180;11.400;2023-11-18T04:29:41;4.20;99.90
48007;DHT22;33771;48.180;11.400;2023-11-18T04:32:07;4.20;99.90
48007;DHT22;33771;48.180;11.400;2023-11-18T04:34:36;4.20;99.90
48007;DHT22;33771;48.180;11.400;2023-11-18T04:37:02;4.20;99.90
48007;DHT22;33771;48.180;11.400;2023-11-18T04:39:28;4.20;99.90
48007;DHT22;33771;48.180;11.400;2023-11-18T04:41:55;4.20;99.90
48007;DHT22;33771;48.180;11.400;2023-11-18T04:44:21;4.20;99.90
48007;DHT22;33771;48.180;11.400;2023-11-18T04:46:47;4.20;99.90
48007;DHT22;33771;48.180;11.400;2023-11-18T04:49:13;4.20;99.90
48007;DHT22;33771;48.180;11.400;2023-11-18T04:51:38;4.30;99.90
48007;DHT22;33771;48.180;11.400;2023-11-18T04:54:04;4.20;99.90
48007;DHT22;33771;48.180;11.400;2023-11-18T04:56:32;4.30;99.90
48007;DHT22;33771;48.180;11.400;2023-11-18T04:58:58;4.20;99.90
48007;DHT22;33771;48.180;11.400;2023-11-18T05:01:23;4.20;99.90
48007;DHT22;33771;48.180;11.400;2023-11-18T05:03:49;4.20;99.90
48007;DHT22;33771;48.180;11.400;2023-11-18T05:06:14;4.30;99.90
48007;DHT22;33771;48.180;11.400;2023-11-18T05:08:40;4.20;99.90
48007;DHT22;33771;48.180;11.400;2023-11-18T05:11:05;4.20;99.90
48007;DHT22;33771;48.180;11.400;2023-11-18T05:13:31;4.20;99.90
48007;DHT22;33771;48.180;11.400;2023-11-18T05:15:57;4.20;99.90
48007;DHT22;33771;48.180;11.400;2023-11-18T05:18:23;4.20;99.90
48007;DHT22;33771;48.180;11.400;2023-11-18T05:20:49;4.20;99.90
48007;DHT22;33771;48.180;11.400;2023-11-18T05:23:14;4.20;99.90
48007;DHT22;33771;48.180;11.400;2023-11-18T05:25:40;4.20;99.90
48007;DHT22;33771;48.180;11.400;2023-11-18T05:28:06;4.20;99.90
48007;DHT22;33771;48.180;11.400;2023-11-18T05:30:34;4.20;99.90
48007;DHT22;33771;48.180;11.400;2023-11-18T05:33:05;4.10;99.90
48007;DHT22;33771;48.180;11.400;2023-11-18T05:35:31;4.10;99.90
48007;DHT22;33771;48.180;11.400;2023-11-18T05:37:58;4.10;99.90
48007;DHT22;33771;48.180;11.400;2023-11-18T05:40:24;4.10;99.90
48007;DHT22;33771;48.180;11.400;2023-11-18T05:42:50;4.10;99.90
48007;DHT22;33771;48.180;11.400;2023-11-18T05:45:18;4.10;99.90
48007;DHT22;33771;48.180;11.400;2023-11-18T05:47:56;4.10;99.90
48007;DHT22;33771;48.180;11.400;2023-11-18T05:50:25;4.10;99.90
48007;DHT22;33771;48.180;11.400;2023-11-18T05:52:52;4.10;99.90
48007;DHT22;33771;48.180;11.400;2023-11-18T05:55:17;4.10;99.90
48007;DHT22;33771;48.180;11.400;2023-11-18T05:57:43;4.10;99.90
48007;DHT22;33771;48.180;11.400;2023-11-18T06:00:11;4.10;99.90
48007;DHT22;33771;48.180;11.400;2023-11-18T06:02:41;4.10;99.90
48007;DHT22;33771;48.180;11.400;2023-11-18T06:05:07;4.10;99.90
48007;DHT22;33771;48.180;11.400;2023-11-18T06:07:33;4.10;99.90
48007;DHT22;33771;48.180;11.400;2023-11-18T06:10:00;4.10;99.90
48007;DHT22;33771;48.180;11.400;2023-11-18T06:12:27;4.10;99.90
48007;DHT22;33771;48.180;11.400;2023-11-18T06:14:52;4.20;99.90
48007;DHT22;33771;48.180;11.400;2023-11-18T06:17:18;4.20;99.90
48007;DHT22;33771;48.180;11.400;2023-11-18T06:19:44;4.20;99.90
48007;DHT22;33771;48.180;11.400;2023-11-18T06:22:10;4.20;99.90
48007;DHT22;33771;48.180;11.400;2023-11-18T06:24:36;4.20;99.90
48007;DHT22;33771;48.180;11.400;2023-11-18T06:27:01;4.20;99.90
48007;DHT22;33771;48.180;11.400;2023-11-18T06:29:27;4.20;99.90
48007;DHT22;33771;48.180;11.400;2023-11-18T06:31:54;4.20;99.90
48007;DHT22;33771;48.180;11.400;2023-11-18T06:34:20;4.20;99.90
48007;DHT22;33771;48.180;11.400;2023-11-18T06:36:46;4.20;99.90
48007;DHT22;33771;48.180;11.400;2023-11-18T06:39:11;4.20;99.90
48007;DHT22;33771;48.180;11.400;2023-11-18T06:41:38;4.20;99.90
48007;DHT22;33771;48.180;11.400;2023-11-18T06:44:14;4.30;99.90
48007;DHT22;33771;48.180;11.400;2023-11-18T06:46:43;4.30;99.90
48007;DHT22;33771;48.180;11.400;2023-11-18T06:49:09;4.30;99.90
48007;DHT22;33771;48.180;11.400;2023-11-18T06:51:40;4.30;99.90
48007;DHT22;33771;48.180;11.400;2023-11-18T06:54:07;4.30;99.90
48007;DHT22;33771;48.180;11.400;2023-11-18T06:56:37;4.30;99.90
48007;DHT22;33771;48.180;11.400;2023-11-18T06:59:06;4.30;99.90
48007;DHT22;33771;48.180;11.400;2023-11-18T07:01:33;4.30;99.90
48007;DHT22;33771;48.180;11.400;2023-11-18T07:03:58;4.30;99.90
48007;DHT22;33771;48.180;11.400;2023-11-18T07:06:24;4.30;99.90
48007;DHT22;33771;48.180;11.400;2023-11-18T07:08:53;4.30;99.90
48007;DHT22;33771;48.180;11.400;2023-11-18T07:11:19;4.40;99.90
48007;DHT22;33771;48.180;11.400;2023-11-18T07:13:47;4.40;99.90
48007;DHT22;33771;48.180;11.400;2023-11-18T07:16:13;4.50;99.90
48007;DHT22;33771;48.180;11.400;2023-11-18T07:18:39;4.50;99.90
48007;DHT22;33771;48.180;11.400;2023-11-18T07:21:05;4.50;99.90
48007;DHT22;33771;48.180;11.400;2023-11-18T07:23:32;4.50;99.90
48007;DHT22;33771;48.180;11.400;2023-11-18T07:25:57;4.50;99.90
48007;DHT22;33771;48.180;11.400;2023-11-18T07:28:23;4.50;99.90
48007;DHT22;33771;48.180;11.400;2023-11-18T07:30:49;4.60;99.90
48007;DHT22;33771;48.180;11.400;2023-11-18T07:33:16;4.60;99.90
48007;DHT22;33771;48.180;11.400;2023-11-18T07:35:45;4.60;99.90
48007;DHT22;33771;48.180;11.400;2023-11-18T07:38:12;4.70;99.90
48007;DHT22;33771;48.180;11.400;2023-11-18T07:40:38;4.70;99.90
48007;DHT22;33771;48.180;11.400;2023-11-18T07:43:08;4.70;99.90
48007;DHT22;33771;48.180;11.400;2023-11-18T07:45:37;4.80;99.90
48007;DHT22;33771;48.180;11.400;2023-11-18T07:48:07;4.80;99.90
48007;DHT22;33771;48.180;11.400;2023-11-18T07:50:36;4.80;99.90
48007;DHT22;33771;48.180;11.400;2023-11-18T07:53:02;4.90;99.90
48007;DHT22;33771;48.180;11.400;2023-11-18T07:55:28;5.00;99.90
48007;DHT22;33771;48.180;11.400;2023-11-18T07:57:54;5.00;99.90
48007;DHT22;33771;48.180;11.400;2023-11-18T08:00:20;5.10;99.90
48007;DHT22;33771;48.180;11.400;2023-11-18T08:02:46;5.10;99.90
48007;DHT22;33771;48.180;11.400;2023-11-18T08:05:12;5.20;99.90
48007;DHT22;33771;48.180;11.400;2023-11-18T08:07:43;5.20;99.90
48007;DHT22;33771;48.180;11.400;2023-11-18T08:10:12;5.30;99.90
48007;DHT22;33771;48.180;11.400;2023-11-18T08:12:39;5.30;99.90
48007;DHT22;33771;48.180;11.400;2023-11-18T08:15:06;5.40;99.90
48007;DHT22;33771;48.180;11.400;2023-11-18T08:17:32;5.40;99.90
48007;DHT22;33771;48.180;11.400;2023-11-18T08:19:59;5.40;99.90
48007;DHT22;33771;48.180;11.400;2023-11-18T08:22:25;5.60;99.90
48007;DHT22;33771;48.180;11.400;2023-11-18T08:24:50;5.60;99.90
48007;DHT22;33771;48.180;11.400;2023-11-18T08:27:16;5.70;99.90
48007;DHT22;33771;48.180;11.400;2023-11-18T08:29:42;5.70;99.90
48007;DHT22;33771;48.180;11.400;2023-11-18T08:32:08;5.80;99.90
48007;DHT22;33771;48.180;11.400;2023-11-18T08:34:35;5.80;99.90
48007;DHT22;33771;48.180;11.400;2023-11-18T08:37:07;5.80;99.90
48007;DHT22;33771;48.180;11.400;2023-11-18T08:39:32;5.80;99.90
48007;DHT22;33771;48.180;11.400;2023-11-18T08:41:58;5.90;99.90
48007;DHT22;33771;48.180;11.400;2023-11-18T08:44:24;6.00;99.90
48007;DHT22;33771;48.180;11.400;2023-11-18T08:46:51;6.00;99.90
48007;DHT22;33771;48.180;11.400;2023-11-18T08:49:18;6.00;99.90
48007;DHT22;33771;48.180;11.400;2023-11-18T08:51:47;6.10;99.90
48007;DHT22;33771;48.180;11.400;2023-11-18T08:54:15;6.10;99.90
48007;DHT22;33771;48.180;11.400;2023-11-18T08:57:00;6.20;99.90
48007;DHT22;33771;48.180;11.400;2023-11-18T08:59:28;6.20;99.90
48007;DHT22;33771;48.180;11.400;2023-11-18T09:01:54;6.30;99.90
48007;DHT22;33771;48.180;11.400;2023-11-18T09:04:25;6.40;99.90
48007;DHT22;33771;48.180;11.400;2023-11-18T09:06:53;6.50;99.90
48007;DHT22;33771;48.180;11.400;2023-11-18T09:09:22;6.50;99.90
48007;DHT22;33771;48.180;11.400;2023-11-18T09:11:56;6.60;99.90
48007;DHT22;33771;48.180;11.400;2023-11-18T09:14:26;6.60;99.90
48007;DHT22;33771;48.180;11.400;2023-11-18T09:16:52;6.60;99.90
48007;DHT22;33771;48.180;11.400;2023-11-18T09:19:20;6.60;99.90
48007;DHT22;33771;48.180;11.400;2023-11-18T09:21:46;6.60;99.90
48007;DHT22;33771;48.180;11.400;2023-11-18T09:24:12;6.70;99.90
48007;DHT22;33771;48.180;11.400;2023-11-18T09:26:39;6.70;99.90
48007;DHT22;33771;48.180;11.400;2023-11-18T09:29:06;6.70;99.90
48007;DHT22;33771;48.180;11.400;2023-11-18T09:31:34;6.70;99.90
48007;DHT22;33771;48.180;11.400;2023-11-18T09:34:01;6.80;99.90
48007;DHT22;33771;48.180;11.400;2023-11-18T09:36:31;6.90;99.90
48007;DHT22;33771;48.180;11.400;2023-11-18T09:38:59;7.00;99.90
48007;DHT22;33771;48.180;11.400;2023-11-18T09:41:25;7.00;99.90
48007;DHT22;33771;48.180;11.400;2023-11-18T09:43:53;7.10;99.90
48007;DHT22;33771;48.180;11.400;2023-11-18T09:46:28;7.10;99.90
48007;DHT22;33771;48.180;11.400;2023-11-18T09:49:26;7.10;99.90
48007;DHT22;33771;48.180;11.400;2023-11-18T09:51:59;7.10;99.90
48007;DHT22;33771;48.180;11.400;2023-11-18T09:54:41;7.20;99.90
48007;DHT22;33771;48.180;11.400;2023-11-18T09:57:23;7.30;99.90
48007;DHT22;33771;48.180;11.400;2023-11-18T10:00:05;7.30;99.90
48007;DHT22;33771;48.180;11.400;2023-11-18T10:02:52;7.30;99.90
48007;DHT22;33771;48.180;11.400;2023-11-18T10:05:19;7.30;99.90
48007;DHT22;33771;48.180;11.400;2023-11-18T10:07:52;7.30;99.90
48007;DHT22;33771;48.180;11.400;2023-11-18T10:10:18;7.40;99.90
48007;DHT22;33771;48.180;11.400;2023-11-18T10:12:47;7.30;99.90
48007;DHT22;33771;48.180;11.400;2023-11-18T10:15:19;7.30;99.90
48007;DHT22;33771;48.180;11.400;2023-11-18T10:17:49;7.20;99.90
48007;DHT22;33771;48.180;11.400;2023-11-18T10:23:14;7.20;99.90
48007;DHT22;33771;48.180;11.400;2023-11-18T10:25:49;7.20;99.90
48007;DHT22;33771;48.180;11.400;2023-11-18T10:28:28;7.20;99.90
48007;DHT22;33771;48.180;11.400;2023-11-18T10:30:57;7.20;99.90
48007;DHT22;33771;48.180;11.400;2023-11-18T10:33:25;7.20;99.90
48007;DHT22;33771;48.180;11.400;2023-11-18T10:35:56;7.20;99.90
48007;DHT22;33771;48.180;11.400;2023-11-18T10:38:22;7.30;99.90
48007;DHT22;33771;48.180;11.400;2023-11-18T10:40:58;7.40;99.90
48007;DHT22;33771;48.180;11.400;2023-11-18T10:43:24;7.50;99.90
48007;DHT22;33771;48.180;11.400;2023-11-18T10:45:51;7.50;99.90
48007;DHT22;33771;48.180;11.400;2023-11-18T10:48:18;7.50;99.90
48007;DHT22;33771;48.180;11.400;2023-11-18T10:50:49;7.50;99.90
48007;DHT22;33771;48.180;11.400;2023-11-18T10:53:17;7.50;99.90
48007;DHT22;33771;48.180;11.400;2023-11-18T10:55:44;7.50;99.90
48007;DHT22;33771;48.180;11.400;2023-11-18T10:58:09;7.50;99.90
48007;DHT22;33771;48.180;11.400;2023-11-18T11:00:52;7.50;99.90
48007;DHT22;33771;48.180;11.400;2023-11-18T11:03:25;7.50;99.90
48007;DHT22;33771;48.180;11.400;2023-11-18T11:05:51;7.60;99.90
48007;DHT22;33771;48.180;11.400;2023-11-18T11:08:19;7.60;99.90
48007;DHT22;33771;48.180;11.400;2023-11-18T11:10:46;7.70;99.90
48007;DHT22;33771;48.180;11.400;2023-11-18T11:13:15;7.80;99.90
48007;DHT22;33771;48.180;11.400;2023-11-18T11:15:43;7.80;99.90
48007;DHT22;33771;48.180;11.400;2023-11-18T11:18:20;7.80;99.90
48007;DHT22;33771;48.180;11.400;2023-11-18T11:21:02;8.00;99.90
48007;DHT22;33771;48.180;11.400;2023-11-18T11:23:49;8.00;99.90
48007;DHT22;33771;48.180;11.400;2023-11-18T11:29:18;8.00;99.90
48007;DHT22;33771;48.180;11.400;2023-11-18T11:32:00;8.00;99.90
48007;DHT22;33771;48.180;11.400;2023-11-18T11:34:29;8.10;99.90
48007;DHT22;33771;48.180;11.400;2023-11-18T11:36:58;8.10;99.90
48007;DHT22;33771;48.180;11.400;2023-11-18T11:39:24;8.10;99.90
48007;DHT22;33771;48.180;11.400;2023-11-18T11:41:55;8.10;99.90
48007;DHT22;33771;48.180;11.400;2023-11-18T11:44:22;8.20;99.90
48007;DHT22;33771;48.180;11.400;2023-11-18T11:46:54;8.20;99.90
48007;DHT22;33771;48.180;11.400;2023-11-18T11:49:22;8.20;99.90
48007;DHT22;33771;48.180;11.400;2023-11-18T11:52:10;8.20;99.90
48007;DHT22;33771;48.180;11.400;2023-11-18T11:54:52;8.20;99.90
48007;DHT22;33771;48.180;11.400;2023-11-18T11:57:22;8.30;99.90
48007;DHT22;33771;48.180;11.400;2023-11-18T12:02:18;8.30;99.90
48007;DHT22;33771;48.180;11.400;2023-11-18T12:04:50;8.40;99.90
48007;DHT22;33771;48.180;11.400;2023-11-18T12:07:23;8.40;99.90
48007;DHT22;33771;48.180;11.400;2023-11-18T12:09:55;8.40;99.90
48007;DHT22;33771;48.180;11.400;2023-11-18T12:12:24;8.40;99.90
48007;DHT22;33771;48.180;11.400;2023-11-18T12:14:56;8.40;99.90
48007;DHT22;33771;48.180;11.400;2023-11-18T12:17:23;8.30;99.90
48007;DHT22;33771;48.180;11.400;2023-11-18T12:19:57;8.30;99.90
48007;DHT22;33771;48.180;11.400;2023-11-18T12:23:03;8.40;99.90
48007;DHT22;33771;48.180;11.400;2023-11-18T12:25:30;8.40;99.90
48007;DHT22;33771;48.180;11.400;2023-11-18T12:27:57;8.40;99.90
48007;DHT22;33771;48.180;11.400;2023-11-18T12:32:58;8.40;99.90
48007;DHT22;33771;48.180;11.400;2023-11-18T12:35:27;8.40;99.90
48007;DHT22;33771;48.180;11.400;2023-11-18T12:41:01;8.40;99.90
48007;DHT22;33771;48.180;11.400;2023-11-18T12:44:14;8.40;99.90
48007;DHT22;33771;48.180;11.400;2023-11-18T12:46:52;8.30;99.90
48007;DHT22;33771;48.180;11.400;2023-11-18T12:49:19;8.20;99.90
48007;DHT22;33771;48.180;11.400;2023-11-18T12:51:54;8.20;99.90
48007;DHT22;33771;48.180;11.400;2023-11-18T12:54:22;8.20;99.90
48007;DHT22;33771;48.180;11.400;2023-11-18T12:56:51;8.20;99.90
48007;DHT22;33771;48.180;11.400;2023-11-18T12:59:19;8.20;99.90
48007;DHT22;33771;48.180;11.400;2023-11-18T13:01:49;8.20;99.90
48007;DHT22;33771;48.180;11.400;2023-11-18T13:04:24;8.30;99.90
48007;DHT22;33771;48.180;11.400;2023-11-18T13:06:50;8.30;99.90
48007;DHT22;33771;48.180;11.400;2023-11-18T13:09:17;8.30;99.90
48007;DHT22;33771;48.180;11.400;2023-11-18T13:11:58;8.30;99.90
48007;DHT22;33771;48.180;11.400;2023-11-18T13:14:28;8.30;99.90
48007;DHT22;33771;48.180;11.400;2023-11-18T13:16:56;8.20;99.90
48007;DHT22;33771;48.180;11.400;2023-11-18T13:19:28;8.20;99.90
48007;DHT22;33771;48.180;11.400;2023-11-18T13:21:58;8.10;99.90
48007;DHT22;33771;48.180;11.400;2023-11-18T13:24:25;8.00;99.90
48007;DHT22;33771;48.180;11.400;2023-11-18T13:26:55;8.00;99.90
48007;DHT22;33771;48.180;11.400;2023-11-18T13:29:22;8.00;99.90
48007;DHT22;33771;48.180;11.400;2023-11-18T13:31:52;8.00;99.90
48007;DHT22;33771;48.180;11.400;2023-11-18T13:34:18;8.00;99.90
48007;DHT22;33771;48.180;11.400;2023-11-18T13:36:47;8.00;99.90
48007;DHT22;33771;48.180;11.400;2023-11-18T13:39:17;7.90;99.90
48007;DHT22;33771;48.180;11.400;2023-11-18T13:41:43;7.90;99.90
48007;DHT22;33771;48.180;11.400;2023-11-18T13:44:10;7.80;99.90
48007;DHT22;33771;48.180;11.400;2023-11-18T13:46:41;7.80;99.90
48007;DHT22;33771;48.180;11.400;2023-11-18T13:49:07;7.80;99.90
48007;DHT22;33771;48.180;11.400;2023-11-18T13:51:34;7.70;99.90
48007;DHT22;33771;48.180;11.400;2023-11-18T13:54:03;7.70;99.90
48007;DHT22;33771;48.180;11.400;2023-11-18T13:56:29;7.70;99.90
48007;DHT22;33771;48.180;11.400;2023-11-18T13:58:55;7.70;99.90
48007;DHT22;33771;48.180;11.400;2023-11-18T14:01:21;7.60;99.90
48007;DHT22;33771;48.180;11.400;2023-11-18T14:03:47;7.70;99.90
48007;DHT22;33771;48.180;11.400;2023-11-18T14:06:13;7.70;99.90
48007;DHT22;33771;48.180;11.400;2023-11-18T14:08:43;7.70;99.90
48007;DHT22;33771;48.180;11.400;2023-11-18T14:11:08;7.70;99.90
48007;DHT22;33771;48.180;11.400;2023-11-18T14:13:35;7.70;99.90
48007;DHT22;33771;48.180;11.400;2023-11-18T14:16:04;7.70;99.90
48007;DHT22;33771;48.180;11.400;2023-11-18T14:18:35;7.60;99.90
48007;DHT22;33771;48.180;11.400;2023-11-18T14:21:01;7.60;99.90
48007;DHT22;33771;48.180;11.400;2023-11-18T14:23:27;7.60;99.90
48007;DHT22;33771;48.180;11.400;2023-11-18T14:25:52;7.50;99.90
48007;DHT22;33771;48.180;11.400;2023-11-18T14:28:18;7.60;99.90
48007;DHT22;33771;48.180;11.400;2023-11-18T14:30:44;7.50;99.90
48007;DHT22;33771;48.180;11.400;2023-11-18T14:33:09;7.50;99.90
48007;DHT22;33771;48.180;11.400;2023-11-18T14:35:35;7.40;99.90
48007;DHT22;33771;48.180;11.400;2023-11-18T14:38:01;7.40;99.90
48007;DHT22;33771;48.180;11.400;2023-11-18T14:40:27;7.30;99.90
48007;DHT22;33771;48.180;11.400;2023-11-18T14:42:53;7.30;99.90
48007;DHT22;33771;48.180;11.400;2023-11-18T14:45:19;7.20;99.90
48007;DHT22;33771;48.180;11.400;2023-11-18T14:47:45;7.10;99.90
48007;DHT22;33771;48.180;11.400;2023-11-18T14:50:11;7.00;99.90
48007;DHT22;33771;48.180;11.400;2023-11-18T14:52:47;6.90;99.90
48007;DHT22;33771;48.180;11.400;2023-11-18T14:55:14;6.80;99.90
48007;DHT22;33771;48.180;11.400;2023-11-18T14:57:42;6.80;99.90
48007;DHT22;33771;48.180;11.400;2023-11-18T15:00:10;6.70;99.90
48007;DHT22;33771;48.180;11.400;2023-11-18T15:02:50;6.60;99.90
48007;DHT22;33771;48.180;11.400;2023-11-18T15:05:17;6.50;99.90
48007;DHT22;33771;48.180;11.400;2023-11-18T15:07:45;6.50;99.90
48007;DHT22;33771;48.180;11.400;2023-11-18T15:10:10;6.40;99.90
48007;DHT22;33771;48.180;11.400;2023-11-18T15:12:36;6.40;99.90
48007;DHT22;33771;48.180;11.400;2023-11-18T15:15:03;6.40;99.90
48007;DHT22;33771;48.180;11.400;2023-11-18T15:17:29;6.40;99.90
48007;DHT22;33771;48.180;11.400;2023-11-18T15:19:55;6.40;99.90
48007;DHT22;33771;48.180;11.400;2023-11-18T15:22:21;6.30;99.90
48007;DHT22;33771;48.180;11.400;2023-11-18T15:24:48;6.30;99.90
48007;DHT22;33771;48.180;11.400;2023-11-18T15:27:14;6.30;99.90
48007;DHT22;33771;48.180;11.400;2023-11-18T15:29:40;6.30;99.90
48007;DHT22;33771;48.180;11.400;2023-11-18T15:32:16;6.20;99.90
48007;DHT22;33771;48.180;11.400;2023-11-18T15:34:42;6.20;99.90
48007;DHT22;33771;48.180;11.400;2023-11-18T15:37:08;6.20;99.90
48007;DHT22;33771;48.180;11.400;2023-11-18T15:39:36;6.20;99.90
48007;DHT22;33771;48.180;11.400;2023-11-18T15:42:01;6.10;99.90
48007;DHT22;33771;48.180;11.400;2023-11-18T15:44:27;6.10;99.90
48007;DHT22;33771;48.180;11.400;2023-11-18T15:46:54;6.10;99.90
48007;DHT22;33771;48.180;11.400;2023-11-18T15:49:19;6.10;99.90
48007;DHT22;33771;48.180;11.400;2023-11-18T15:51:45;6.10;99.90